Ana Sayfa
METAR-TAF:

METAR-TAF

Havaalanları :

Çengdu Shuangliu Uluslararası Havalimanı

Çengdu, Çin

Enlem: 30-40N, Boylam: 104-01E, yükseklik: 508 m

Güncel hava durumu gözlemi

Rapor saat 00:00 UTC de 21 dakika önce yapıldı.
Rüzgar güneybatıdan 4 kt
Sıcaklık 10°C
Nem 93%
Basınç 1029 hPa
Görüş mesafesi: 3300 m
5000 ft yükseklikte parçalı bulutlu
Pus

METAR: ZUUU 210000Z 23002MPS 3300 BR SCT050 10/09 Q1029 NOSIG

Saat: 08:21 (00:21 UTC)

Tahmin

Rapor saat 20:03 UTC de 4 saat ve 18 dakika önce yapıldı.
Ayın 21'si saat 00 UTC'den ayın 21'si saat 24 UTC'ye kadar geçerli Tahmin
Rüzgar kuzey/kuzeydoğudan 6 kt
Görüş mesafesi: 3500 m
5000 ft yükseklikte parçalı bulutlu
Pus

TAF: ZUUU 202003Z 2100/2124 02003MPS 3500 BR SCT050 TX13/2108Z TN07/2121Z

4.000'den fazla havaalanı için hava durumu gözlemleri ve tahminleri (METAR ve TAF raporları).

Kullanılabilir istasyonlar harita üzerinde sarı ve kırmızı noktalarla gösterilir.

İstasyonun adını görmek için fareyi noktanın üzerinde gezdirin.

Sonrasında hava gözlem ve tahminlerini görmek için tıklayın.

Haritayı değiştirmek için: yaklaştırmak için siyah artı işaretli yeşil düğmeye ve uzaklaştırmak için de eksi işaretli düğmeye hızla tıklayın; bitişik haritalar için yeşil okları kullanın.


METAR-TAF: